createdAt,value
2019-02-23T00:00:12.728Z,81.67
2019-02-23T00:01:11.693Z,81.77
2019-02-23T00:02:11.660Z,82.60
2019-02-23T00:03:11.652Z,81.74
2019-02-23T00:04:11.677Z,81.88
2019-02-23T00:05:11.636Z,81.98
2019-02-23T00:06:11.633Z,81.57
2019-02-23T00:07:11.618Z,82.29
2019-02-23T00:08:11.594Z,82.09
2019-02-23T00:09:11.594Z,82.09
2019-02-23T00:10:11.574Z,83.01
2019-02-23T00:11:11.571Z,82.70
2019-02-23T00:12:11.591Z,83.01
2019-02-23T00:13:11.554Z,82.60
2019-02-23T00:14:11.531Z,82.60
2019-02-23T00:15:11.524Z,82.64
2019-02-23T00:16:11.516Z,83.01
2019-02-23T00:17:11.532Z,82.50
2019-02-23T00:18:12.705Z,82.54
2019-02-23T00:19:11.475Z,82.70
2019-02-23T00:20:11.463Z,83.05
2019-02-23T00:21:11.451Z,83.36
2019-02-23T00:22:11.440Z,83.15
2019-02-23T00:23:11.460Z,83.47
2019-02-23T00:24:11.441Z,83.09
2019-02-23T00:25:11.447Z,83.61
2019-02-23T00:26:11.402Z,83.81
2019-02-23T00:27:11.389Z,83.91
2019-02-23T00:28:11.384Z,84.43
2019-02-23T00:29:11.384Z,83.81
2019-02-23T00:30:11.362Z,84.22
2019-02-23T00:31:11.374Z,83.91
2019-02-23T00:32:11.334Z,84.01
2019-02-23T00:33:11.341Z,84.01
2019-02-23T00:34:11.317Z,83.91
2019-02-23T00:35:11.305Z,83.29
2019-02-23T00:36:11.322Z,83.71
2019-02-23T00:37:11.292Z,83.81
2019-02-23T00:38:11.281Z,83.91
2019-02-23T00:39:11.283Z,83.81
2019-02-23T00:40:11.248Z,83.91
2019-02-23T00:41:11.240Z,83.81
2019-02-23T00:42:11.226Z,84.33
2019-02-23T00:43:11.235Z,83.91
2019-02-23T00:44:11.259Z,83.91
2019-02-23T00:45:11.202Z,84.67
2019-02-23T00:46:11.185Z,84.88
2019-02-23T00:47:11.179Z,85.05
2019-02-23T00:48:11.166Z,85.15
2019-02-23T00:49:11.154Z,84.36
2019-02-23T00:50:11.185Z,83.71
2019-02-23T00:51:11.196Z,84.88
2019-02-23T00:52:11.114Z,84.88
2019-02-23T00:53:11.103Z,85.05
2019-02-23T00:54:11.099Z,84.27
2019-02-23T00:55:11.090Z,84.64
2019-02-23T00:56:11.097Z,84.64
2019-02-23T00:57:11.089Z,84.78
2019-02-23T00:58:11.051Z,84.88
2019-02-23T00:59:11.051Z,84.33
2019-02-23T01:00:11.046Z,84.47
2019-02-23T01:01:11.041Z,84.57
2019-02-23T01:02:12.128Z,84.84
2019-02-23T01:03:11.058Z,85.50
2019-02-23T01:04:10.983Z,84.57
2019-02-23T01:05:10.982Z,84.67
2019-02-23T01:06:10.981Z,84.99
2019-02-23T01:07:10.956Z,85.19
2019-02-23T01:08:10.970Z,85.50
2019-02-23T01:09:10.961Z,85.54
2019-02-23T01:10:10.923Z,85.91
2019-02-23T01:11:10.909Z,85.71
2019-02-23T01:12:10.900Z,85.33
2019-02-23T01:13:10.896Z,85.71
2019-02-23T01:14:10.890Z,85.50
2019-02-23T01:15:10.907Z,85.75
2019-02-23T01:16:10.864Z,85.60
2019-02-23T01:17:10.851Z,85.91
2019-02-23T01:18:10.838Z,85.54
2019-02-23T01:19:10.825Z,85.85
2019-02-23T01:20:10.820Z,85.85
2019-02-23T01:21:10.854Z,85.71
2019-02-23T01:22:10.795Z,85.91
2019-02-23T01:23:10.779Z,85.75
2019-02-23T01:24:10.777Z,85.95
2019-02-23T01:25:10.755Z,85.85
2019-02-23T01:26:10.764Z,86.05
2019-02-23T01:27:10.794Z,85.85
2019-02-23T01:28:10.732Z,85.64
2019-02-23T01:29:10.716Z,85.95
2019-02-23T01:30:10.702Z,86.47
2019-02-23T01:31:10.741Z,86.47
2019-02-23T01:32:10.701Z,86.68
2019-02-23T01:33:10.705Z,85.95
2019-02-23T01:34:10.688Z,85.54
2019-02-23T01:35:10.698Z,85.99
2019-02-23T01:36:10.660Z,86.41
2019-02-23T01:37:10.646Z,86.57
2019-02-23T01:38:10.630Z,86.71
2019-02-23T01:39:10.612Z,86.92
2019-02-23T01:40:10.634Z,87.13
2019-02-23T01:41:10.589Z,87.34
2019-02-23T01:42:10.594Z,87.23
2019-02-23T01:43:10.567Z,87.02
2019-02-23T01:44:10.547Z,87.17
2019-02-23T01:45:10.547Z,87.23
2019-02-23T01:46:10.567Z,87.74
2019-02-23T01:47:10.542Z,88.16
2019-02-23T01:48:10.503Z,87.95
2019-02-23T01:49:10.494Z,87.95
2019-02-23T01:50:10.488Z,87.48
2019-02-23T01:51:10.485Z,87.85
2019-02-23T01:52:10.514Z,87.89
2019-02-23T01:53:10.468Z,87.89
2019-02-23T01:54:10.443Z,87.89
2019-02-23T01:55:10.431Z,87.79
2019-02-23T01:56:10.419Z,87.79
2019-02-23T01:57:10.405Z,87.89
2019-02-23T01:58:10.439Z,87.68
2019-02-23T01:59:10.390Z,87.58
2019-02-23T02:00:10.400Z,87.58
2019-02-23T02:01:10.364Z,87.99
2019-02-23T02:02:10.353Z,87.99
2019-02-23T02:03:10.360Z,87.89
2019-02-23T02:04:10.363Z,88.31
2019-02-23T02:05:10.327Z,88.31
2019-02-23T02:06:10.328Z,88.41
2019-02-23T02:07:10.303Z,88.31
2019-02-23T02:08:10.290Z,88.31
2019-02-23T02:09:10.280Z,88.45
2019-02-23T02:10:10.303Z,87.83
2019-02-23T02:11:10.275Z,88.04
2019-02-23T02:12:10.261Z,88.31
2019-02-23T02:13:10.256Z,87.93
2019-02-23T02:14:10.239Z,88.34
2019-02-23T02:15:10.230Z,87.93
2019-02-23T02:16:10.205Z,87.83
2019-02-23T02:17:10.326Z,87.66
2019-02-23T02:18:10.206Z,87.83
2019-02-23T02:19:10.265Z,88.39
2019-02-23T02:20:11.542Z,88.28
2019-02-23T02:21:10.153Z,88.70
2019-02-23T02:22:10.140Z,88.49
2019-02-23T02:23:10.169Z,88.59
2019-02-23T02:24:10.140Z,88.80
2019-02-23T02:25:10.115Z,89.22
2019-02-23T02:26:10.101Z,88.90
2019-02-23T02:27:10.093Z,88.59
2019-02-23T02:28:10.074Z,89.01
2019-02-23T02:29:10.132Z,88.39
2019-02-23T02:30:10.090Z,88.80
2019-02-23T02:31:10.045Z,89.01
2019-02-23T02:32:10.044Z,88.70
2019-02-23T02:33:10.024Z,88.53
2019-02-23T02:34:10.013Z,88.70
2019-02-23T02:35:10.034Z,88.70
2019-02-23T02:36:09.997Z,89.11
2019-02-23T02:37:09.986Z,88.80
2019-02-23T02:38:09.970Z,88.80
2019-02-23T02:39:09.958Z,89.11
2019-02-23T02:40:09.947Z,88.84
2019-02-23T02:41:09.979Z,89.25
2019-02-23T02:42:09.931Z,88.32
2019-02-23T02:43:09.916Z,89.52
2019-02-23T02:44:10.067Z,89.25
2019-02-23T02:45:09.918Z,89.36
2019-02-23T02:46:09.900Z,89.46
2019-02-23T02:47:09.872Z,89.77
2019-02-23T02:48:09.873Z,89.67
2019-02-23T02:49:09.863Z,90.19
2019-02-23T02:50:09.850Z,89.77
2019-02-23T02:51:09.838Z,89.25
2019-02-23T02:52:09.820Z,89.77
2019-02-23T02:53:09.803Z,89.11
2019-02-23T02:54:09.824Z,89.42
2019-02-23T02:55:09.801Z,89.04
2019-02-23T02:56:09.780Z,88.90
2019-02-23T02:57:09.793Z,88.90
2019-02-23T02:58:09.756Z,89.04
2019-02-23T02:59:09.837Z,89.04
2019-02-23T03:00:09.796Z,89.04
2019-02-23T03:01:09.718Z,89.01
2019-02-23T03:02:09.732Z,89.15
2019-02-23T03:03:09.717Z,89.25
2019-02-23T03:04:09.694Z,88.53
2019-02-23T03:05:09.674Z,88.64
2019-02-23T03:06:09.678Z,88.74
2019-02-23T03:07:09.670Z,88.53
2019-02-23T03:08:09.684Z,88.53
2019-02-23T03:09:09.644Z,88.84
2019-02-23T03:10:09.631Z,88.64
2019-02-23T03:11:09.615Z,88.53
2019-02-23T03:12:09.601Z,89.15
2019-02-23T03:13:09.610Z,88.74
2019-02-23T03:14:09.615Z,88.74
2019-02-23T03:15:09.577Z,88.84
2019-02-23T03:16:09.565Z,88.53
2019-02-23T03:17:09.557Z,88.64
2019-02-23T03:18:09.547Z,89.04
2019-02-23T03:19:09.542Z,89.15
2019-02-23T03:20:09.561Z,88.53
2019-02-23T03:21:09.518Z,89.15
2019-02-23T03:22:09.503Z,89.15
2019-02-23T03:23:09.484Z,88.53
2019-02-23T03:24:09.486Z,88.98
2019-02-23T03:25:09.469Z,88.98
2019-02-23T03:26:09.511Z,89.04
2019-02-23T03:27:09.445Z,89.09
2019-02-23T03:28:09.436Z,88.64
2019-02-23T03:29:09.429Z,88.74
2019-02-23T03:30:09.437Z,89.04
2019-02-23T03:31:09.541Z,88.84
2019-02-23T03:32:09.422Z,89.19
2019-02-23T03:33:09.389Z,88.74
2019-02-23T03:34:09.384Z,88.84
2019-02-23T03:35:09.356Z,88.98
2019-02-23T03:36:09.348Z,88.67
2019-02-23T03:37:09.340Z,88.57
2019-02-23T03:38:09.357Z,89.29
2019-02-23T03:39:09.361Z,88.74
2019-02-23T03:40:09.322Z,89.09
2019-02-23T03:41:09.289Z,88.67
2019-02-23T03:42:09.276Z,88.67
2019-02-23T03:43:09.285Z,89.09
2019-02-23T03:44:09.262Z,89.09
2019-02-23T03:45:09.268Z,88.36
2019-02-23T03:46:09.263Z,88.53
2019-02-23T03:47:09.230Z,88.46
2019-02-23T03:48:09.212Z,88.78
2019-02-23T03:49:09.208Z,88.94
2019-02-23T03:50:09.199Z,88.57
2019-02-23T03:51:09.224Z,88.22
2019-02-23T03:52:09.193Z,88.36
2019-02-23T03:53:09.161Z,88.26
2019-02-23T03:54:09.156Z,88.16
2019-02-23T03:55:09.153Z,88.32
2019-02-23T03:56:09.134Z,88.43
2019-02-23T03:57:09.175Z,88.57
2019-02-23T03:58:09.151Z,88.46
2019-02-23T03:59:09.113Z,87.95
2019-02-23T04:00:09.124Z,88.57
2019-02-23T04:01:09.072Z,87.74
2019-02-23T04:02:09.071Z,88.26
2019-02-23T04:03:09.059Z,87.95
2019-02-23T04:04:09.053Z,87.95
2019-02-23T04:05:09.079Z,87.95
2019-02-23T04:06:09.022Z,87.95
2019-02-23T04:07:09.007Z,87.95
2019-02-23T04:08:08.999Z,87.85
2019-02-23T04:09:08.992Z,87.95
2019-02-23T04:10:08.981Z,87.43
2019-02-23T04:11:09.006Z,88.06
2019-02-23T04:12:08.968Z,88.06
2019-02-23T04:13:08.944Z,88.06
2019-02-23T04:14:08.936Z,88.06
2019-02-23T04:15:08.927Z,87.88
2019-02-23T04:16:08.966Z,88.40
2019-02-23T04:17:08.922Z,88.30
2019-02-23T04:18:08.908Z,88.26
2019-02-23T04:19:08.877Z,88.16
2019-02-23T04:20:08.862Z,88.61
2019-02-23T04:21:08.867Z,88.61
2019-02-23T04:22:08.856Z,88.51
2019-02-23T04:23:08.839Z,88.20
2019-02-23T04:24:08.892Z,88.40
2019-02-23T04:25:08.811Z,88.61
2019-02-23T04:26:08.800Z,88.51
2019-02-23T04:27:08.819Z,88.51
2019-02-23T04:28:08.786Z,88.09
2019-02-23T04:29:08.776Z,88.51
2019-02-23T04:30:08.803Z,88.61
2019-02-23T04:31:08.747Z,88.30
2019-02-23T04:32:08.735Z,88.16
2019-02-23T04:33:08.737Z,87.54
2019-02-23T04:34:08.714Z,88.30
2019-02-23T04:35:08.717Z,88.20
2019-02-23T04:36:08.738Z,87.47
2019-02-23T04:37:08.696Z,87.37
2019-02-23T04:38:08.687Z,87.47
2019-02-23T04:39:08.658Z,87.23
2019-02-23T04:40:08.648Z,87.33
2019-02-23T04:41:08.646Z,87.33
2019-02-23T04:42:08.702Z,87.43
2019-02-23T04:43:08.616Z,87.12
2019-02-23T04:44:08.602Z,87.16
2019-02-23T04:45:08.595Z,87.37
2019-02-23T04:46:08.588Z,86.50
2019-02-23T04:47:08.573Z,86.65
2019-02-23T04:48:08.576Z,86.96
2019-02-23T04:49:08.589Z,87.02
2019-02-23T04:50:08.543Z,87.06
2019-02-23T04:51:14.255Z,86.81
2019-02-23T04:52:09.511Z,86.71
2019-02-23T04:53:08.523Z,85.71
2019-02-23T04:54:08.492Z,86.02
2019-02-23T04:55:08.502Z,85.88
2019-02-23T04:56:08.476Z,86.33
2019-02-23T04:57:08.464Z,85.92
2019-02-23T04:58:08.450Z,86.13
2019-02-23T04:59:08.455Z,86.02
2019-02-23T05:00:08.434Z,85.88
2019-02-23T05:01:08.439Z,85.99
2019-02-23T05:02:08.470Z,85.82
2019-02-23T05:03:08.411Z,85.78
2019-02-23T05:04:08.425Z,85.78
2019-02-23T05:05:08.378Z,85.19
2019-02-23T05:06:08.375Z,85.16
2019-02-23T05:07:08.353Z,85.19
2019-02-23T05:08:08.382Z,85.16
2019-02-23T05:09:08.394Z,85.57
2019-02-23T05:10:08.328Z,84.84
2019-02-23T05:11:08.311Z,85.26
2019-02-23T05:12:08.291Z,85.05
2019-02-23T05:13:08.289Z,85.88
2019-02-23T05:14:08.330Z,85.57
2019-02-23T05:15:08.263Z,84.84
2019-02-23T05:16:08.248Z,85.05
2019-02-23T05:17:08.241Z,85.16
2019-02-23T05:18:08.229Z,84.84
2019-02-23T05:19:08.228Z,85.16
2019-02-23T05:20:08.259Z,85.05
2019-02-23T05:21:08.203Z,84.95
2019-02-23T05:22:08.187Z,84.95
2019-02-23T05:23:08.178Z,84.95
2019-02-23T05:24:08.173Z,85.36
2019-02-23T05:25:08.162Z,85.36
2019-02-23T05:26:08.162Z,84.12
2019-02-23T05:27:08.182Z,84.43
2019-02-23T05:28:08.136Z,84.33
2019-02-23T05:29:08.111Z,84.22
2019-02-23T05:30:08.116Z,85.16
2019-02-23T05:31:08.088Z,84.01
2019-02-23T05:32:08.095Z,85.36
2019-02-23T05:33:08.117Z,85.36
2019-02-23T05:34:08.069Z,85.05
2019-02-23T05:35:08.057Z,84.53
2019-02-23T05:36:08.029Z,84.12
2019-02-23T05:37:08.019Z,84.12
2019-02-23T05:38:08.103Z,84.53
2019-02-23T05:39:08.028Z,85.47
2019-02-23T05:40:08.005Z,85.05
2019-02-23T05:41:08.004Z,85.36
2019-02-23T05:42:07.968Z,84.22
2019-02-23T05:43:07.966Z,83.81
2019-02-23T05:44:07.939Z,84.22
2019-02-23T05:45:07.967Z,84.16
2019-02-23T05:46:07.936Z,84.12
2019-02-23T05:47:07.922Z,83.85
2019-02-23T05:48:07.904Z,83.85
2019-02-23T05:49:07.977Z,83.81
2019-02-23T05:50:07.972Z,83.91
2019-02-23T05:51:07.904Z,84.01
2019-02-23T05:52:07.879Z,84.37
2019-02-23T05:53:07.872Z,84.06
2019-02-23T05:54:07.882Z,84.22
2019-02-23T05:55:07.829Z,84.06
2019-02-23T05:56:07.810Z,83.85
2019-02-23T05:57:07.800Z,83.95
2019-02-23T05:58:07.789Z,83.33
2019-02-23T05:59:07.783Z,83.44
2019-02-23T06:00:07.847Z,83.33
2019-02-23T06:01:07.805Z,84.27
2019-02-23T06:02:07.825Z,83.44
2019-02-23T06:03:07.739Z,84.06
2019-02-23T06:04:07.732Z,84.27
2019-02-23T06:05:07.745Z,82.71
2019-02-23T06:06:07.712Z,83.12
2019-02-23T06:07:07.699Z,83.33
2019-02-23T06:08:07.739Z,83.95
2019-02-23T06:09:07.675Z,83.64
2019-02-23T06:10:07.670Z,83.54
2019-02-23T06:11:07.655Z,82.92
2019-02-23T06:12:07.647Z,83.54
2019-02-23T06:13:07.653Z,83.12
2019-02-23T06:14:07.652Z,83.33
2019-02-23T06:15:07.608Z,83.12
2019-02-23T06:16:07.594Z,82.34
2019-02-23T06:17:07.608Z,82.44
2019-02-23T06:18:07.598Z,82.50
2019-02-23T06:19:07.564Z,82.86
2019-02-23T06:20:07.550Z,82.95
2019-02-23T06:21:07.553Z,82.13
2019-02-23T06:22:07.550Z,83.06
2019-02-23T06:23:07.552Z,83.12
2019-02-23T06:24:07.524Z,83.16
2019-02-23T06:25:07.859Z,83.58
2019-02-23T06:26:07.490Z,83.78
2019-02-23T06:27:07.477Z,83.06
2019-02-23T06:28:07.467Z,82.23
2019-02-23T06:29:07.483Z,82.44
2019-02-23T06:30:07.462Z,82.34
2019-02-23T06:31:07.439Z,82.86
2019-02-23T06:32:07.434Z,82.75
2019-02-23T06:33:07.411Z,82.23
2019-02-23T06:34:15.483Z,82.03
2019-02-23T06:35:08.414Z,82.65
2019-02-23T06:36:07.396Z,81.92
2019-02-23T06:37:07.384Z,82.54
2019-02-23T06:38:07.409Z,82.13
2019-02-23T06:39:07.350Z,82.65
2019-02-23T06:40:07.357Z,82.03
2019-02-23T06:41:07.354Z,82.13
2019-02-23T06:42:07.365Z,82.65
2019-02-23T06:43:07.370Z,82.03
2019-02-23T06:44:07.301Z,81.82
2019-02-23T06:45:07.389Z,82.13
2019-02-23T06:46:07.304Z,81.92
2019-02-23T06:47:07.275Z,80.88
2019-02-23T06:48:07.267Z,82.23
2019-02-23T06:49:07.302Z,81.54
2019-02-23T06:50:07.248Z,81.20
2019-02-23T06:51:07.223Z,81.40
2019-02-23T06:52:07.255Z,80.88
2019-02-23T06:53:07.198Z,81.51
2019-02-23T06:54:07.194Z,81.20
2019-02-23T06:55:07.222Z,81.61
2019-02-23T06:56:07.174Z,81.71
2019-02-23T06:57:07.183Z,81.82
2019-02-23T06:58:07.151Z,82.23
2019-02-23T06:59:07.145Z,81.61
2019-02-23T07:00:07.123Z,81.30
2019-02-23T07:01:07.128Z,81.20
2019-02-23T07:02:07.105Z,81.61
2019-02-23T07:03:07.184Z,81.61
2019-02-23T07:04:07.129Z,81.71
2019-02-23T07:05:07.086Z,81.30
2019-02-23T07:06:07.084Z,81.71
2019-02-23T07:07:07.066Z,81.30
2019-02-23T07:08:07.045Z,81.61
2019-02-23T07:09:07.052Z,81.20
2019-02-23T07:10:07.020Z,81.61
2019-02-23T07:11:07.029Z,81.92
2019-02-23T07:12:06.996Z,80.99
2019-02-23T07:13:06.985Z,81.20
2019-02-23T07:14:07.029Z,81.40
2019-02-23T07:15:06.994Z,81.37
2019-02-23T07:16:06.970Z,80.85
2019-02-23T07:17:06.960Z,81.05
2019-02-23T07:18:06.932Z,80.74
2019-02-23T07:19:06.920Z,81.16
2019-02-23T07:20:06.905Z,80.95
2019-02-23T07:21:06.911Z,80.08
2019-02-23T07:22:15.164Z,79.57
2019-02-23T07:23:07.875Z,79.16
2019-02-23T07:24:06.860Z,79.57
2019-02-23T07:25:06.851Z,79.43
2019-02-23T07:26:06.844Z,79.16
2019-02-23T07:27:06.849Z,79.05
2019-02-23T07:28:06.837Z,79.77
2019-02-23T07:29:06.834Z,79.36
2019-02-23T07:30:06.804Z,78.85
2019-02-23T07:31:06.788Z,78.64
2019-02-23T07:32:06.788Z,78.43
2019-02-23T07:33:06.763Z,78.74
2019-02-23T07:34:06.764Z,78.95
2019-02-23T07:35:06.788Z,78.95
2019-02-23T07:36:06.749Z,78.95
2019-02-23T07:37:06.741Z,79.26
2019-02-23T07:38:06.719Z,79.26
2019-02-23T07:39:06.704Z,79.02
2019-02-23T07:40:06.703Z,78.77
2019-02-23T07:41:06.707Z,77.94
2019-02-23T07:42:06.673Z,77.77
2019-02-23T07:43:06.671Z,77.01
2019-02-23T07:44:06.649Z,77.43
2019-02-23T07:45:06.640Z,76.91
2019-02-23T07:46:06.626Z,77.12
2019-02-23T07:47:06.652Z,77.22
2019-02-23T07:48:06.626Z,77.01
2019-02-23T07:49:06.602Z,76.98
2019-02-23T07:50:06.592Z,76.01
2019-02-23T07:51:06.574Z,75.95
2019-02-23T07:52:06.578Z,77.08
2019-02-23T07:53:06.592Z,76.15
2019-02-23T07:54:06.557Z,76.36
2019-02-23T07:55:06.528Z,76.94
2019-02-23T07:56:06.532Z,75.81
2019-02-23T07:57:06.514Z,75.98
2019-02-23T07:58:06.522Z,75.22
2019-02-23T07:59:06.514Z,75.05
2019-02-23T08:00:06.497Z,75.26
2019-02-23T08:01:06.466Z,75.43
2019-02-23T08:02:06.458Z,74.50
2019-02-23T08:03:06.443Z,73.57
2019-02-23T08:04:06.446Z,73.47
2019-02-23T08:05:06.419Z,74.36
2019-02-23T08:06:06.469Z,72.88
2019-02-23T08:07:06.403Z,71.92
2019-02-23T08:08:06.395Z,71.75
2019-02-23T08:09:06.392Z,71.00
2019-02-23T08:10:06.373Z,70.79
2019-02-23T08:11:06.359Z,69.93
2019-02-23T08:12:06.357Z,69.93
2019-02-23T08:13:06.345Z,69.97
2019-02-23T08:14:06.343Z,69.32
2019-02-23T08:15:06.320Z,67.57
2019-02-23T08:16:06.668Z,66.20
2019-02-23T08:17:06.363Z,67.85
2019-02-23T08:18:06.292Z,66.89
2019-02-23T08:19:06.295Z,65.91
2019-02-23T08:20:06.277Z,64.03
2019-02-23T08:21:06.355Z,63.69
2019-02-23T08:22:06.258Z,63.25
2019-02-23T08:23:06.223Z,62.10
2019-02-23T08:24:06.213Z,61.58
2019-02-23T08:25:06.210Z,62.30
2019-02-23T08:26:06.260Z,63.12
2019-02-23T08:27:06.177Z,61.32
2019-02-23T08:28:06.174Z,60.40
2019-02-23T08:29:06.186Z,59.63
2019-02-23T08:30:06.185Z,58.89
2019-02-23T08:31:06.204Z,58.04
2019-02-23T08:32:06.157Z,58.14
2019-02-23T08:33:06.116Z,57.73
2019-02-23T08:34:06.110Z,58.29
2019-02-23T08:35:06.116Z,58.58
2019-02-23T08:36:06.094Z,57.68
2019-02-23T08:37:06.076Z,58.81
2019-02-23T08:38:06.083Z,59.30
2019-02-23T08:39:06.071Z,58.86
2019-02-23T08:40:06.179Z,56.89
2019-02-23T08:41:06.038Z,56.48
2019-02-23T08:42:06.013Z,56.81
2019-02-23T08:43:06.050Z,57.48
2019-02-23T08:44:05.994Z,58.33
2019-02-23T08:45:06.001Z,58.35
2019-02-23T08:46:05.988Z,59.00
2019-02-23T08:47:05.989Z,59.41
2019-02-23T08:48:05.982Z,59.53
2019-02-23T08:49:05.956Z,59.71
2019-02-23T08:50:05.983Z,59.92
2019-02-23T08:51:05.921Z,61.27
2019-02-23T08:52:05.909Z,60.17
2019-02-23T08:53:05.895Z,62.98
2019-02-23T08:54:05.899Z,64.10
2019-02-23T08:55:05.892Z,65.44
2019-02-23T08:56:05.862Z,63.49
2019-02-23T08:57:05.859Z,62.98
2019-02-23T08:58:05.878Z,64.03
2019-02-23T08:59:05.834Z,64.44
2019-02-23T09:00:05.817Z,63.21
2019-02-23T09:01:05.811Z,63.39
2019-02-23T09:02:05.794Z,63.10
2019-02-23T09:03:05.844Z,63.93
2019-02-23T09:04:05.789Z,63.96
2019-02-23T09:05:05.791Z,64.06
2019-02-23T09:06:05.876Z,63.98
2019-02-23T09:07:05.740Z,64.32
2019-02-23T09:08:05.743Z,65.25
2019-02-23T09:09:08.110Z,66.45
2019-02-23T09:10:05.711Z,64.09
2019-02-23T09:11:05.792Z,64.37
2019-02-23T09:12:05.717Z,63.82
2019-02-23T09:13:05.685Z,63.21
2019-02-23T09:14:05.658Z,63.21
2019-02-23T09:15:05.669Z,63.42
2019-02-23T09:16:05.648Z,63.82
2019-02-23T09:17:05.634Z,64.20
2019-02-23T09:18:05.661Z,64.92
2019-02-23T09:19:05.657Z,62.15
2019-02-23T09:20:05.609Z,62.29
2019-02-23T09:21:05.604Z,64.19
2019-02-23T09:22:05.604Z,64.88
2019-02-23T09:23:05.569Z,63.57
2019-02-23T09:24:05.556Z,65.97
2019-02-23T09:25:05.837Z,66.17
2019-02-23T09:26:05.590Z,67.27
2019-02-23T09:27:05.545Z,65.80
2019-02-23T09:28:05.525Z,65.03
2019-02-23T09:29:05.528Z,62.59
2019-02-23T09:30:05.513Z,63.98
2019-02-23T09:31:05.477Z,65.66
2019-02-23T09:32:05.496Z,64.81
2019-02-23T09:33:05.478Z,65.73
2019-02-23T09:34:05.449Z,65.77
2019-02-23T09:35:05.452Z,66.86
2019-02-23T09:36:05.424Z,66.55
2019-02-23T09:37:05.425Z,65.83
2019-02-23T09:38:05.421Z,65.01
2019-02-23T09:39:05.399Z,65.94
2019-02-23T09:40:05.393Z,65.22
2019-02-23T09:41:05.377Z,65.25
2019-02-23T09:42:07.726Z,65.80
2019-02-23T09:43:05.366Z,66.03
2019-02-23T09:44:05.335Z,66.96
2019-02-23T09:45:05.373Z,68.05
2019-02-23T09:46:05.326Z,67.82
2019-02-23T09:47:05.320Z,67.82
2019-02-23T09:48:05.302Z,67.48
2019-02-23T09:49:05.314Z,67.55
2019-02-23T09:50:05.275Z,67.11
2019-02-23T09:51:05.318Z,67.21
2019-02-23T09:52:05.254Z,65.64
2019-02-23T09:53:11.092Z,65.92
2019-02-23T09:54:06.225Z,65.20
2019-02-23T09:55:05.240Z,62.54
2019-02-23T09:56:05.207Z,63.94
2019-02-23T09:57:05.205Z,63.43
2019-02-23T09:58:05.211Z,62.51
2019-02-23T09:59:05.166Z,62.54
2019-02-23T10:00:05.170Z,62.63
2019-02-23T10:01:05.247Z,62.26
2019-02-23T10:02:05.165Z,63.18
2019-02-23T10:03:05.169Z,64.41
2019-02-23T10:04:05.135Z,65.92
2019-02-23T10:05:05.122Z,63.05
2019-02-23T10:06:05.117Z,62.19
2019-02-23T10:07:05.111Z,61.99
2019-02-23T10:08:05.073Z,63.22
2019-02-23T10:09:05.075Z,62.10
2019-02-23T10:10:05.093Z,63.12
2019-02-23T10:11:05.043Z,63.76
2019-02-23T10:12:05.104Z,63.53
2019-02-23T10:13:05.020Z,64.94
2019-02-23T10:14:07.369Z,63.40
2019-02-23T10:15:05.103Z,60.53
2019-02-23T10:16:04.991Z,62.99
2019-02-23T10:17:05.057Z,60.60
2019-02-23T10:18:04.962Z,60.28
2019-02-23T10:19:05.006Z,62.43
2019-02-23T10:20:04.979Z,61.92
2019-02-23T10:21:04.931Z,63.02
2019-02-23T10:22:04.926Z,61.89
2019-02-23T10:23:04.953Z,62.81
2019-02-23T10:24:04.896Z,62.37
2019-02-23T10:25:04.896Z,63.91
2019-02-23T10:26:04.910Z,60.91
2019-02-23T10:27:04.868Z,59.78
2019-02-23T10:28:04.889Z,60.53
2019-02-23T10:29:04.855Z,61.35
2019-02-23T10:30:04.852Z,61.93
2019-02-23T10:31:04.849Z,60.81
2019-02-23T10:32:04.807Z,61.22
2019-02-23T10:33:04.800Z,60.63
2019-02-23T10:34:04.799Z,60.63
2019-02-23T10:35:04.770Z,60.02
2019-02-23T10:36:04.774Z,61.99
2019-02-23T10:37:04.754Z,59.84
2019-02-23T10:38:04.769Z,60.15
2019-02-23T10:39:04.743Z,61.99
2019-02-23T10:40:04.723Z,59.94
2019-02-23T10:41:04.742Z,61.25
2019-02-23T10:42:04.727Z,59.71
2019-02-23T10:43:04.750Z,60.66
2019-02-23T10:44:04.676Z,61.69
2019-02-23T10:45:04.672Z,62.40
2019-02-23T10:46:04.648Z,62.37
2019-02-23T10:47:04.721Z,61.73
2019-02-23T10:48:04.648Z,60.02
2019-02-23T10:49:04.640Z,60.50
2019-02-23T10:50:04.613Z,61.52
2019-02-23T10:51:04.609Z,62.24
2019-02-23T10:52:04.600Z,59.86
2019-02-23T10:53:04.592Z,57.71
2019-02-23T10:54:04.600Z,60.30
2019-02-23T10:55:04.555Z,61.43
2019-02-23T10:56:04.553Z,60.30
2019-02-23T10:57:04.544Z,61.40
2019-02-23T10:58:04.556Z,59.73
2019-02-23T10:59:04.567Z,58.61
2019-02-23T11:00:04.526Z,59.94
2019-02-23T11:01:06.949Z,58.29
2019-02-23T11:02:04.484Z,58.15
2019-02-23T11:03:04.461Z,61.01
2019-02-23T11:04:04.468Z,62.21
2019-02-23T11:05:04.466Z,59.96
2019-02-23T11:06:04.485Z,59.45
2019-02-23T11:07:04.533Z,59.83
2019-02-23T11:08:04.414Z,57.79
2019-02-23T11:09:04.398Z,59.73
2019-02-23T11:10:04.399Z,59.63
2019-02-23T11:11:04.398Z,58.61
2019-02-23T11:12:04.367Z,57.20
2019-02-23T11:13:04.377Z,58.22
2019-02-23T11:14:04.357Z,58.97
2019-02-23T11:15:04.333Z,61.73
2019-02-23T11:16:04.333Z,60.10
2019-02-23T11:17:04.314Z,60.40
2019-02-23T11:18:04.322Z,58.22
2019-02-23T11:19:04.330Z,58.33
2019-02-23T11:20:04.280Z,59.55
2019-02-23T11:21:04.278Z,59.01
2019-02-23T11:22:04.255Z,59.12
2019-02-23T11:23:04.251Z,58.50
2019-02-23T11:24:04.247Z,57.58
2019-02-23T11:25:04.250Z,56.97
2019-02-23T11:26:04.243Z,58.20
2019-02-23T11:27:04.221Z,59.32
2019-02-23T11:28:04.210Z,57.68
2019-02-23T11:29:04.178Z,58.22
2019-02-23T11:30:04.166Z,57.81
2019-02-23T11:31:04.164Z,58.20
2019-02-23T11:32:04.149Z,58.53
2019-02-23T11:33:04.176Z,59.14
2019-02-23T11:34:04.141Z,58.86
2019-02-23T11:35:04.111Z,58.25
2019-02-23T11:36:04.102Z,58.28
2019-02-23T11:37:04.093Z,60.02
2019-02-23T11:38:04.097Z,59.00
2019-02-23T11:39:04.165Z,60.56
2019-02-23T11:40:04.058Z,59.20
2019-02-23T11:41:04.050Z,58.72
2019-02-23T11:42:04.045Z,58.72
2019-02-23T11:43:04.034Z,59.74
2019-02-23T11:44:04.018Z,58.81
2019-02-23T11:45:04.037Z,60.35
2019-02-23T11:46:03.998Z,59.64
2019-02-23T11:47:03.983Z,59.33
2019-02-23T11:48:03.985Z,60.12
2019-02-23T11:49:03.967Z,57.87
2019-02-23T11:50:03.965Z,60.02
2019-02-23T11:51:03.972Z,60.63
2019-02-23T11:52:03.931Z,60.12
2019-02-23T11:53:03.918Z,58.35
2019-02-23T11:54:03.906Z,59.68
2019-02-23T11:55:03.902Z,57.76
2019-02-23T11:56:03.901Z,57.76
2019-02-23T11:57:03.906Z,57.76
2019-02-23T11:58:03.873Z,57.79
2019-02-23T11:59:03.850Z,57.18
2019-02-23T12:00:03.852Z,57.82
2019-02-23T12:01:03.845Z,58.61
2019-02-23T12:02:03.818Z,59.05
2019-02-23T12:03:03.848Z,57.92
2019-02-23T12:04:03.817Z,58.64
2019-02-23T12:05:03.795Z,58.23
2019-02-23T12:06:03.777Z,58.84
2019-02-23T12:07:03.769Z,59.15
2019-02-23T12:08:03.751Z,60.28
2019-02-23T12:09:03.791Z,59.97
2019-02-23T12:10:03.736Z,56.56
2019-02-23T12:11:03.719Z,57.69
2019-02-23T12:12:03.708Z,57.28
2019-02-23T12:13:03.693Z,57.18
2019-02-23T12:14:03.705Z,57.79
2019-02-23T12:15:03.696Z,57.48
2019-02-23T12:16:03.677Z,57.87
2019-02-23T12:17:03.657Z,56.97
2019-02-23T12:18:03.657Z,57.79
2019-02-23T12:19:03.648Z,57.76
2019-02-23T12:20:03.635Z,57.46
2019-02-23T12:21:03.630Z,56.84
2019-02-23T12:22:11.991Z,56.46
2019-02-23T12:23:04.618Z,57.38
2019-02-23T12:24:06.283Z,56.77
2019-02-23T12:25:03.566Z,57.07
2019-02-23T12:26:03.564Z,57.35
2019-02-23T12:27:03.547Z,56.54
2019-02-23T12:28:03.537Z,56.84
2019-02-23T12:29:03.573Z,56.20
2019-02-23T12:30:03.583Z,55.69
2019-02-23T12:31:03.515Z,55.21
2019-02-23T12:32:03.491Z,56.84
2019-02-23T12:33:03.476Z,55.82
2019-02-23T12:34:03.470Z,55.62
2019-02-23T12:35:03.473Z,57.05
2019-02-23T12:36:03.458Z,56.82
2019-02-23T12:37:03.440Z,56.41
2019-02-23T12:38:03.423Z,55.58
2019-02-23T12:39:03.411Z,56.71
2019-02-23T12:40:03.395Z,55.97
2019-02-23T12:41:03.411Z,55.46
2019-02-23T12:42:03.399Z,54.64
2019-02-23T12:43:03.433Z,54.23
2019-02-23T12:44:03.370Z,54.46
2019-02-23T12:45:03.374Z,54.97
2019-02-23T12:46:03.332Z,54.77
2019-02-23T12:47:03.326Z,55.36
2019-02-23T12:48:03.347Z,54.67
2019-02-23T12:49:03.304Z,55.69
2019-02-23T12:50:03.296Z,55.77
2019-02-23T12:51:03.299Z,54.44
2019-02-23T12:52:03.264Z,54.03